Home   Weather   Australia   Dubbo   Past weeks
Flag for Australia

Past Weather in Dubbo, New South Wales, Australia — Yesterday and Last 2 Weeks

Currently: 43 °F. Clear. (Weather station: Dubbo Airport, Australia). See more current weather

Past Weather in Dubbo — Graph

°F

Dubbo Temperature Yesterday

Maximum temperature yesterday: 63 °F (at 1:00 pm)
Minimum temperature yesterday: 43 °F (at 10:30 pm)
Average temperature yesterday: 52 °F

High & Low Weather Summary for the Past Weeks

 TemperatureHumidityPressure
High72 °F (May 8, 2:00 pm)100% (May 6, 4:30 am)30.42 "Hg (May 6, 4:30 am)
Low43 °F (May 14, 7:05 am)34% (May 18, 2:30 pm)30.09 "Hg (May 4, 2:30 pm)
Average57 °F78%30.25 "Hg
* Reported May 3 11:04 pm — May 18 11:00 pm, Dubbo. Weather by CustomWeather, © 2024

Note: Actual official high and low records may vary slightly from our data, if they occured in-between our weather recording intervals... More about our weather records

Dubbo Weather History for the Previous 24 Hours

Scroll right to see more
 ConditionsComfort  
Time TempWeatherWind HumidityBarometerVisibility
11:00 pm
Sat, May 18
43 °FClear.7 mph76%30.24 "HgN/A
10:30 pm43 °FClear.6 mph71%30.24 "HgN/A
10:00 pm46 °FClear.9 mph66%30.24 "HgN/A
9:30 pm46 °FClear.8 mph66%30.24 "HgN/A
9:00 pm48 °FClear.12 mph62%30.24 "HgN/A
8:30 pm50 °FClear.13 mph58%30.24 "HgN/A
8:00 pm50 °FClear.9 mph62%30.24 "HgN/A
7:30 pm50 °FClear.10 mph62%30.24 "HgN/A
7:00 pm50 °FClear.9 mph62%30.24 "HgN/A
6:30 pm50 °FClear.8 mph62%30.21 "HgN/A
6:00 pm54 °FClear.10 mph54%30.21 "HgN/A
5:00 pm57 °FSunny.16 mph44%30.18 "HgN/A
4:30 pm59 °FSunny.13 mph42%30.18 "HgN/A
4:00 pm61 °FSunny.14 mph39%30.18 "HgN/A
3:30 pm61 °FSunny.18 mph36%30.18 "HgN/A
3:00 pm63 °FSunny.18 mph34%30.18 "HgN/A
2:30 pm63 °FSunny.17 mph34%30.18 "HgN/A
2:00 pm63 °FSunny.16 mph39%30.18 "HgN/A
1:30 pm63 °FSunny.16 mph39%30.18 "HgN/A
1:00 pm63 °FSunny.14 mph42%30.18 "HgN/A
12:30 pm61 °FSunny.15 mph45%30.18 "HgN/A
12:00 pm61 °FSunny.13 mph45%30.18 "HgN/A
11:30 am59 °FScattered clouds.14 mph55%30.21 "HgN/A
11:00 am57 °FScattered clouds.16 mph59%30.21 "HgN/A
10:30 am57 °FScattered clouds.13 mph63%30.21 "HgN/A
10:00 am55 °FSunny.9 mph72%30.21 "HgN/A
9:30 am52 °FScattered clouds.13 mph77%30.21 "HgN/A
9:00 am50 °FPartly sunny.14 mph82%30.21 "HgN/A
8:30 am50 °FSunny.10 mph82%30.21 "HgN/A
8:00 am48 °FSunny.12 mph87%30.21 "HgN/A
7:30 am46 °FSunny.10 mph93%30.18 "HgN/A
7:00 am46 °FSunny.9 mph87%30.18 "HgN/A
6:30 am46 °FClear.10 mph93%30.18 "HgN/A
6:00 am45 °FClear.6 mph93%30.18 "HgN/A
5:30 am46 °FClear.6 mph87%30.18 "HgN/A
5:00 am46 °FClear.7 mph87%30.18 "HgN/A
4:30 am48 °FClear.6 mph82%30.18 "HgN/A
4:00 am48 °FClear.7 mph87%30.15 "HgN/A
3:30 am50 °FClear.9 mph82%30.15 "HgN/A
3:00 am50 °FClear.9 mph88%30.18 "HgN/A
2:30 am52 °FClear.12 mph82%30.18 "HgN/A
2:00 am52 °FClear.9 mph82%30.18 "HgN/A
1:30 am46 °FClear.6 mph93%30.18 "HgN/A
1:00 am45 °FClear.No wind93%30.18 "HgN/A
12:30 am45 °FClear.3 mph93%30.21 "HgN/A
12:00 am46 °FClear.5 mph87%30.21 "HgN/A
Weather by CustomWeather, © 2024

See weather overview